• Join FlightAware (Why Join?)
  • Login
  • US Flag 
04:45AM EDT


 

Airport Tracker/Info


-or-


 

Live Flight TrackerFlight Track Log ✈ N244A ✈ 12-Sep-2013 ✈ KSRQ - KFLL

Flight Track Log - Related Links

Times and Time Zones

All times are in EDT time to prevent confusion due to time zone crossing. See the N244A flight status page for this flight to view local times or setup timezone preferences in your user account.

Time Position Orientation Groundspeed Altitude Reporting Facility
EDT Latitude Longitude Course Direction KTS MPH feet Rate Location/Type
10:50AM 27.4000 -82.5500 138° Southeast 140 161 600  Level Tampa TRACON
10:51AM 27.3667 -82.5167 138° Southeast 177 204 2,200 2,520 Climbing Tampa TRACON
10:53AM 27.2736 -82.4011 132° Southeast 307 353 8,100 2,700 Climbing Miami Center
10:54AM 27.2392 -82.3200 116° Southeast 289 333 10,800 2,280 Climbing Miami Center
10:55AM 27.1725 -82.2608 142° Southeast 284 327 12,700 1,620 Climbing Miami Center
10:56AM 27.0853 -82.1939 146° Southeast 321 369 14,100 1,140 Climbing Miami Center
10:57AM 26.9997 -82.1339 148° Southeast 350 403 15,000 420 Climbing Miami Center
10:58AM 26.9103 -82.0647 145° Southeast 377 434 15,000  Level Miami Center
10:59AM 26.8128 -81.9931 147° Southeast 410 472 15,000  Level Miami Center
11:00AM 26.7133 -81.9119 144° Southeast 432 497 15,000  Level Miami Center
11:01AM 26.6394 -81.8111 129° Southeast 432 497 15,000  Level Miami Center
11:02AM 26.5725 -81.6969 123° Southeast 427 491 15,000  Level Miami Center
11:03AM 26.5111 -81.5969 124° Southeast 434 499 15,000  Level Miami Center
11:04AM 26.4453 -81.4969 126° Southeast 423 487 15,100 -300 Climbing Miami Center
11:05AM 26.3897 -81.4044 124° Southeast 382 440 14,500 -1,500 Descending Miami Center
11:06AM 26.3219 -81.3022 126° Southeast 369 425 12,100 -1,800 Descending Miami Center
11:07AM 26.2622 -81.2050 124° Southeast 369 425 11,000 -960 Descending Miami Center
11:08AM 26.2161 -81.1361 127° Southeast 368 423 10,500 -900 Descending Miami Center
11:08AM 26.2044 -81.1125 119° Southeast 369 425 10,100 -540 Descending Miami Center
11:09AM 26.1622 -81.0578 131° Southeast 322 371 10,000 -300 Descending Miami Center
11:09AM 26.1603 -81.0461 101° East 351 404 9,800 -1,380 Descending Miami Center
11:10AM 26.1181 -80.9869 128° Southeast 264 304 8,600 -1,740 Descending Miami Center
11:10AM 26.1106 -80.9611 108° East 295 339 8,100 -600 Descending Miami Center
11:11AM 26.1036 -80.9078 98° East 253 291 8,000 -120 Descending Miami Center
11:11AM 26.1147 -80.8828 64° Northeast 254 292 8,000 -900 Level Miami Center
11:12AM 26.1206 -80.8228 84° East 307 353 7,200 -1,320 Descending Miami Center
11:12AM 26.1278 -80.7883 77° East 267 307 6,700 -1,080 Descending Miami Center
11:13AM 26.1317 -80.7214 86° East 296 341 6,000 -1,020 Descending Miami Center
11:13AM 26.1386 -80.7006 70° East 281 323 5,700 -1,140 Descending Miami Center
11:14AM 26.1381 -80.6406 91° East 279 321 5,000 -960 Descending Miami Center
11:14AM 26.1492 -80.6153 64° Northeast 287 330 4,600 -1,380 Descending Miami Center
11:15AM 26.1525 -80.5600 86° East 278 320 3,600 -1,620 Descending Miami Center
11:15AM 26.1600 -80.5161 79° East 279 321 3,000 -600 Descending Miami Center
11:16AM 26.1608 -80.4817 88° East 228 262 3,000  Level Miami Center
11:16AM 26.1722 -80.4450 71° East 256 295 3,000  Level Miami Center
11:17AM 26.1750 -80.4103 85° East 210 242 3,000  Level Miami Center
11:17AM 26.1819 -80.3828 74° East 222 255 3,000  Level Miami Center
11:18AM 26.1764 -80.3569 103° East 160 184 3,000 -600 Level Miami Center
11:19AM 26.1836 -80.3108 80° East 147 169 2,100 -780 Descending Miami Center
11:20AM 26.1869 -80.2647 85° East 126 145 1,400 -660 Descending Miami Center
11:21AM 26.1919 -80.2256 82° East 122 140 700 -720 Descending Miami Center
11:23AM 26.0837 -80.1595 119° Southeast  Level Estimated
11:30AM 26.0667 -80.1500 119° Southeast  Level FlightAware Approximate
11:31AM 26.0726 -80.1527 119° Southeast  Level Estimated